sensor_id;sensor_type;location;lat;lon;timestamp;P1;durP1;ratioP1;P2;durP2;ratioP2
14080;SDS011;7116;52.152;5.392;2023-03-04T00:01:45;19.77;;;3.13;;
14080;SDS011;7116;52.152;5.392;2023-03-04T00:04:11;11.67;;;2.50;;
14080;SDS011;7116;52.152;5.392;2023-03-04T00:06:36;18.17;;;3.20;;
14080;SDS011;7116;52.152;5.392;2023-03-04T00:09:01;14.37;;;3.10;;
14080;SDS011;7116;52.152;5.392;2023-03-04T00:11:28;10.27;;;3.20;;
14080;SDS011;7116;52.152;5.392;2023-03-04T00:13:54;13.57;;;3.10;;
14080;SDS011;7116;52.152;5.392;2023-03-04T00:16:19;14.73;;;3.15;;
14080;SDS011;7116;52.152;5.392;2023-03-04T00:18:44;14.40;;;3.40;;
14080;SDS011;7116;52.152;5.392;2023-03-04T00:21:09;8.00;;;2.90;;
14080;SDS011;7116;52.152;5.392;2023-03-04T00:23:34;15.17;;;3.17;;
14080;SDS011;7116;52.152;5.392;2023-03-04T00:26:00;14.73;;;3.20;;
14080;SDS011;7116;52.152;5.392;2023-03-04T00:28:25;14.93;;;3.90;;
14080;SDS011;7116;52.152;5.392;2023-03-04T00:30:50;9.60;;;2.93;;
14080;SDS011;7116;52.152;5.392;2023-03-04T00:33:15;18.80;;;3.23;;
14080;SDS011;7116;52.152;5.392;2023-03-04T00:35:41;9.97;;;3.17;;
14080;SDS011;7116;52.152;5.392;2023-03-04T00:38:06;10.87;;;3.77;;
14080;SDS011;7116;52.152;5.392;2023-03-04T00:40:31;8.43;;;2.63;;
14080;SDS011;7116;52.152;5.392;2023-03-04T00:42:56;10.40;;;3.10;;
14080;SDS011;7116;52.152;5.392;2023-03-04T00:45:22;13.43;;;3.27;;
14080;SDS011;7116;52.152;5.392;2023-03-04T00:47:47;8.37;;;2.93;;
14080;SDS011;7116;52.152;5.392;2023-03-04T00:50:12;12.43;;;3.33;;
14080;SDS011;7116;52.152;5.392;2023-03-04T00:52:37;16.73;;;3.30;;
14080;SDS011;7116;52.152;5.392;2023-03-04T00:55:02;9.57;;;3.43;;
14080;SDS011;7116;52.152;5.392;2023-03-04T00:57:28;8.97;;;2.70;;
14080;SDS011;7116;52.152;5.392;2023-03-04T00:59:53;12.80;;;3.07;;
14080;SDS011;7116;52.152;5.392;2023-03-04T01:02:18;14.13;;;3.73;;
14080;SDS011;7116;52.152;5.392;2023-03-04T01:04:43;16.03;;;3.60;;
14080;SDS011;7116;52.152;5.392;2023-03-04T01:07:09;11.70;;;3.20;;
14080;SDS011;7116;52.152;5.392;2023-03-04T01:09:34;11.37;;;3.10;;
14080;SDS011;7116;52.152;5.392;2023-03-04T01:11:59;14.90;;;3.60;;
14080;SDS011;7116;52.152;5.392;2023-03-04T01:14:24;12.25;;;3.50;;
14080;SDS011;7116;52.152;5.392;2023-03-04T01:16:50;11.73;;;3.30;;
14080;SDS011;7116;52.152;5.392;2023-03-04T01:19:15;11.40;;;3.93;;
14080;SDS011;7116;52.152;5.392;2023-03-04T01:21:41;10.73;;;3.13;;
14080;SDS011;7116;52.152;5.392;2023-03-04T01:24:06;14.13;;;3.10;;
14080;SDS011;7116;52.152;5.392;2023-03-04T01:26:31;10.43;;;3.00;;
14080;SDS011;7116;52.152;5.392;2023-03-04T01:28:56;12.47;;;2.87;;
14080;SDS011;7116;52.152;5.392;2023-03-04T01:31:21;12.30;;;3.07;;
14080;SDS011;7116;52.152;5.392;2023-03-04T01:33:47;13.77;;;2.90;;
14080;SDS011;7116;52.152;5.392;2023-03-04T01:36:12;11.30;;;3.33;;
14080;SDS011;7116;52.152;5.392;2023-03-04T01:38:37;15.30;;;3.57;;
14080;SDS011;7116;52.152;5.392;2023-03-04T01:41:02;17.93;;;3.27;;
14080;SDS011;7116;52.152;5.392;2023-03-04T01:43:28;8.93;;;3.03;;
14080;SDS011;7116;52.152;5.392;2023-03-04T01:45:54;9.07;;;3.22;;
14080;SDS011;7116;52.152;5.392;2023-03-04T01:48:21;13.70;;;3.20;;
14080;SDS011;7116;52.152;5.392;2023-03-04T01:50:48;9.80;;;3.20;;
14080;SDS011;7116;52.152;5.392;2023-03-04T01:53:19;10.97;;;3.03;;
14080;SDS011;7116;52.152;5.392;2023-03-04T01:55:45;6.73;;;3.47;;
14080;SDS011;7116;52.152;5.392;2023-03-04T01:58:11;11.15;;;3.30;;
14080;SDS011;7116;52.152;5.392;2023-03-04T02:00:36;13.00;;;3.27;;
14080;SDS011;7116;52.152;5.392;2023-03-04T02:03:05;16.83;;;3.83;;
14080;SDS011;7116;52.152;5.392;2023-03-04T02:05:35;12.40;;;3.35;;
14080;SDS011;7116;52.152;5.392;2023-03-04T02:08:01;13.90;;;3.00;;
14080;SDS011;7116;52.152;5.392;2023-03-04T02:10:28;12.82;;;3.10;;
14080;SDS011;7116;52.152;5.392;2023-03-04T02:12:53;10.32;;;2.78;;
14080;SDS011;7116;52.152;5.392;2023-03-04T02:15:18;10.20;;;3.53;;
14080;SDS011;7116;52.152;5.392;2023-03-04T02:17:43;13.43;;;3.17;;
14080;SDS011;7116;52.152;5.392;2023-03-04T02:20:15;14.63;;;4.00;;
14080;SDS011;7116;52.152;5.392;2023-03-04T02:22:50;10.18;;;3.33;;
14080;SDS011;7116;52.152;5.392;2023-03-04T02:25:20;11.27;;;3.20;;
14080;SDS011;7116;52.152;5.392;2023-03-04T02:27:46;12.60;;;3.63;;
14080;SDS011;7116;52.152;5.392;2023-03-04T02:30:17;11.30;;;2.77;;
14080;SDS011;7116;52.152;5.392;2023-03-04T02:32:43;9.63;;;2.77;;
14080;SDS011;7116;52.152;5.392;2023-03-04T02:35:12;9.40;;;3.07;;
14080;SDS011;7116;52.152;5.392;2023-03-04T02:37:38;9.38;;;2.97;;
14080;SDS011;7116;52.152;5.392;2023-03-04T02:40:04;8.87;;;2.83;;
14080;SDS011;7116;52.152;5.392;2023-03-04T02:42:30;8.00;;;2.50;;
14080;SDS011;7116;52.152;5.392;2023-03-04T02:44:58;14.77;;;3.22;;
14080;SDS011;7116;52.152;5.392;2023-03-04T02:47:23;8.00;;;3.03;;
14080;SDS011;7116;52.152;5.392;2023-03-04T02:49:48;16.27;;;3.60;;
14080;SDS011;7116;52.152;5.392;2023-03-04T02:52:18;8.93;;;4.00;;
14080;SDS011;7116;52.152;5.392;2023-03-04T02:54:43;8.98;;;3.40;;
14080;SDS011;7116;52.152;5.392;2023-03-04T02:57:09;11.90;;;3.53;;
14080;SDS011;7116;52.152;5.392;2023-03-04T02:59:36;6.90;;;2.92;;
14080;SDS011;7116;52.152;5.392;2023-03-04T03:02:01;8.18;;;3.50;;
14080;SDS011;7116;52.152;5.392;2023-03-04T03:04:26;9.37;;;2.53;;
14080;SDS011;7116;52.152;5.392;2023-03-04T03:06:52;14.73;;;3.90;;
14080;SDS011;7116;52.152;5.392;2023-03-04T03:09:18;10.60;;;3.27;;
14080;SDS011;7116;52.152;5.392;2023-03-04T03:11:43;8.07;;;2.60;;
14080;SDS011;7116;52.152;5.392;2023-03-04T03:14:08;12.67;;;3.00;;
14080;SDS011;7116;52.152;5.392;2023-03-04T03:16:34;10.53;;;2.97;;
14080;SDS011;7116;52.152;5.392;2023-03-04T03:18:59;9.60;;;3.07;;
14080;SDS011;7116;52.152;5.392;2023-03-04T03:21:24;11.43;;;3.10;;
14080;SDS011;7116;52.152;5.392;2023-03-04T03:23:49;9.57;;;3.27;;
14080;SDS011;7116;52.152;5.392;2023-03-04T03:26:15;18.70;;;2.87;;
14080;SDS011;7116;52.152;5.392;2023-03-04T03:28:40;8.52;;;2.50;;
14080;SDS011;7116;52.152;5.392;2023-03-04T03:31:05;12.57;;;3.17;;
14080;SDS011;7116;52.152;5.392;2023-03-04T03:33:30;9.23;;;3.17;;
14080;SDS011;7116;52.152;5.392;2023-03-04T03:35:56;9.73;;;2.90;;
14080;SDS011;7116;52.152;5.392;2023-03-04T03:38:21;8.60;;;2.60;;
14080;SDS011;7116;52.152;5.392;2023-03-04T03:40:46;9.17;;;2.80;;
14080;SDS011;7116;52.152;5.392;2023-03-04T03:43:12;13.20;;;3.73;;
14080;SDS011;7116;52.152;5.392;2023-03-04T03:45:37;8.80;;;3.28;;
14080;SDS011;7116;52.152;5.392;2023-03-04T03:48:03;8.93;;;3.10;;
14080;SDS011;7116;52.152;5.392;2023-03-04T03:50:28;13.33;;;2.57;;
14080;SDS011;7116;52.152;5.392;2023-03-04T03:52:53;11.13;;;3.00;;
14080;SDS011;7116;52.152;5.392;2023-03-04T03:55:19;10.90;;;2.77;;
14080;SDS011;7116;52.152;5.392;2023-03-04T03:57:44;6.87;;;2.37;;
14080;SDS011;7116;52.152;5.392;2023-03-04T04:00:09;12.00;;;3.87;;
14080;SDS011;7116;52.152;5.392;2023-03-04T04:02:35;16.90;;;3.20;;
14080;SDS011;7116;52.152;5.392;2023-03-04T04:05:00;9.80;;;3.00;;
14080;SDS011;7116;52.152;5.392;2023-03-04T04:07:25;13.17;;;3.53;;
14080;SDS011;7116;52.152;5.392;2023-03-04T04:09:50;7.18;;;2.78;;
14080;SDS011;7116;52.152;5.392;2023-03-04T04:12:15;8.40;;;3.33;;
14080;SDS011;7116;52.152;5.392;2023-03-04T04:14:42;10.82;;;2.75;;
14080;SDS011;7116;52.152;5.392;2023-03-04T04:17:07;7.45;;;3.03;;
14080;SDS011;7116;52.152;5.392;2023-03-04T04:19:33;7.03;;;2.73;;
14080;SDS011;7116;52.152;5.392;2023-03-04T04:21:58;7.17;;;2.93;;
14080;SDS011;7116;52.152;5.392;2023-03-04T04:24:24;10.70;;;2.87;;
14080;SDS011;7116;52.152;5.392;2023-03-04T04:26:49;8.15;;;3.00;;
14080;SDS011;7116;52.152;5.392;2023-03-04T04:29:15;9.93;;;2.77;;
14080;SDS011;7116;52.152;5.392;2023-03-04T04:31:40;7.63;;;2.72;;
14080;SDS011;7116;52.152;5.392;2023-03-04T04:34:05;6.10;;;2.73;;
14080;SDS011;7116;52.152;5.392;2023-03-04T04:36:30;9.80;;;2.87;;
14080;SDS011;7116;52.152;5.392;2023-03-04T04:38:56;8.63;;;2.40;;
14080;SDS011;7116;52.152;5.392;2023-03-04T04:41:25;10.80;;;2.97;;
14080;SDS011;7116;52.152;5.392;2023-03-04T04:43:51;7.90;;;2.72;;
14080;SDS011;7116;52.152;5.392;2023-03-04T04:46:16;7.55;;;2.70;;
14080;SDS011;7116;52.152;5.392;2023-03-04T04:48:41;7.13;;;2.57;;
14080;SDS011;7116;52.152;5.392;2023-03-04T04:51:07;6.60;;;3.00;;
14080;SDS011;7116;52.152;5.392;2023-03-04T04:53:32;8.23;;;2.63;;
14080;SDS011;7116;52.152;5.392;2023-03-04T04:55:57;7.67;;;3.17;;
14080;SDS011;7116;52.152;5.392;2023-03-04T04:58:22;9.47;;;2.93;;
14080;SDS011;7116;52.152;5.392;2023-03-04T05:00:48;11.80;;;3.73;;
14080;SDS011;7116;52.152;5.392;2023-03-04T05:03:13;7.77;;;2.90;;
14080;SDS011;7116;52.152;5.392;2023-03-04T05:05:38;6.20;;;2.77;;
14080;SDS011;7116;52.152;5.392;2023-03-04T05:08:03;13.57;;;3.03;;
14080;SDS011;7116;52.152;5.392;2023-03-04T05:10:29;14.70;;;3.00;;
14080;SDS011;7116;52.152;5.392;2023-03-04T05:12:54;11.87;;;3.27;;
14080;SDS011;7116;52.152;5.392;2023-03-04T05:15:19;7.70;;;2.40;;
14080;SDS011;7116;52.152;5.392;2023-03-04T05:17:44;5.63;;;3.00;;
14080;SDS011;7116;52.152;5.392;2023-03-04T05:20:09;10.10;;;3.10;;
14080;SDS011;7116;52.152;5.392;2023-03-04T05:22:35;6.17;;;2.40;;
14080;SDS011;7116;52.152;5.392;2023-03-04T05:25:00;7.60;;;3.10;;
14080;SDS011;7116;52.152;5.392;2023-03-04T05:27:25;10.53;;;2.93;;
14080;SDS011;7116;52.152;5.392;2023-03-04T05:29:50;7.93;;;3.00;;
14080;SDS011;7116;52.152;5.392;2023-03-04T05:32:16;7.50;;;3.07;;
14080;SDS011;7116;52.152;5.392;2023-03-04T05:34:41;8.07;;;2.90;;
14080;SDS011;7116;52.152;5.392;2023-03-04T05:37:06;8.30;;;2.73;;
14080;SDS011;7116;52.152;5.392;2023-03-04T05:39:31;12.07;;;3.30;;
14080;SDS011;7116;52.152;5.392;2023-03-04T05:41:56;6.73;;;2.73;;
14080;SDS011;7116;52.152;5.392;2023-03-04T05:44:22;9.37;;;2.70;;
14080;SDS011;7116;52.152;5.392;2023-03-04T05:46:47;8.40;;;3.20;;
14080;SDS011;7116;52.152;5.392;2023-03-04T05:49:12;9.17;;;2.97;;
14080;SDS011;7116;52.152;5.392;2023-03-04T05:51:37;11.60;;;2.78;;
14080;SDS011;7116;52.152;5.392;2023-03-04T05:54:03;15.53;;;2.80;;
14080;SDS011;7116;52.152;5.392;2023-03-04T05:56:28;4.30;;;2.30;;
14080;SDS011;7116;52.152;5.392;2023-03-04T05:58:55;6.30;;;2.67;;
14080;SDS011;7116;52.152;5.392;2023-03-04T06:01:21;11.30;;;3.72;;
14080;SDS011;7116;52.152;5.392;2023-03-04T06:03:46;14.10;;;2.90;;
14080;SDS011;7116;52.152;5.392;2023-03-04T06:06:13;8.05;;;2.88;;
14080;SDS011;7116;52.152;5.392;2023-03-04T06:08:38;6.43;;;3.00;;
14080;SDS011;7116;52.152;5.392;2023-03-04T06:11:03;8.77;;;2.90;;
14080;SDS011;7116;52.152;5.392;2023-03-04T06:13:29;7.47;;;3.20;;
14080;SDS011;7116;52.152;5.392;2023-03-04T06:15:55;7.63;;;2.97;;
14080;SDS011;7116;52.152;5.392;2023-03-04T06:18:21;10.32;;;2.72;;
14080;SDS011;7116;52.152;5.392;2023-03-04T06:20:46;9.63;;;3.33;;
14080;SDS011;7116;52.152;5.392;2023-03-04T06:23:11;6.77;;;2.70;;
14080;SDS011;7116;52.152;5.392;2023-03-04T06:25:36;7.37;;;2.77;;
14080;SDS011;7116;52.152;5.392;2023-03-04T06:28:02;15.50;;;2.97;;
14080;SDS011;7116;52.152;5.392;2023-03-04T06:30:27;12.43;;;2.60;;
14080;SDS011;7116;52.152;5.392;2023-03-04T06:32:52;11.23;;;3.13;;
14080;SDS011;7116;52.152;5.392;2023-03-04T06:35:18;8.13;;;2.73;;
14080;SDS011;7116;52.152;5.392;2023-03-04T06:37:43;8.13;;;2.77;;
14080;SDS011;7116;52.152;5.392;2023-03-04T06:40:08;12.07;;;3.03;;
14080;SDS011;7116;52.152;5.392;2023-03-04T06:42:34;7.87;;;2.90;;
14080;SDS011;7116;52.152;5.392;2023-03-04T06:45:00;8.20;;;2.63;;
14080;SDS011;7116;52.152;5.392;2023-03-04T06:47:26;8.87;;;2.93;;
14080;SDS011;7116;52.152;5.392;2023-03-04T06:49:51;9.57;;;3.45;;
14080;SDS011;7116;52.152;5.392;2023-03-04T06:52:17;14.87;;;3.53;;
14080;SDS011;7116;52.152;5.392;2023-03-04T06:54:42;7.80;;;2.60;;
14080;SDS011;7116;52.152;5.392;2023-03-04T06:57:07;7.30;;;2.70;;
14080;SDS011;7116;52.152;5.392;2023-03-04T06:59:32;4.60;;;2.10;;
14080;SDS011;7116;52.152;5.392;2023-03-04T07:01:58;13.17;;;3.17;;
14080;SDS011;7116;52.152;5.392;2023-03-04T07:04:23;5.37;;;2.37;;
14080;SDS011;7116;52.152;5.392;2023-03-04T07:06:48;7.80;;;2.55;;
14080;SDS011;7116;52.152;5.392;2023-03-04T07:09:14;9.90;;;3.00;;
14080;SDS011;7116;52.152;5.392;2023-03-04T07:11:39;10.60;;;2.70;;
14080;SDS011;7116;52.152;5.392;2023-03-04T07:14:04;8.80;;;2.63;;
14080;SDS011;7116;52.152;5.392;2023-03-04T07:16:29;6.67;;;2.17;;
14080;SDS011;7116;52.152;5.392;2023-03-04T07:18:55;9.97;;;2.50;;
14080;SDS011;7116;52.152;5.392;2023-03-04T07:21:20;7.70;;;2.73;;
14080;SDS011;7116;52.152;5.392;2023-03-04T07:23:45;8.03;;;2.43;;
14080;SDS011;7116;52.152;5.392;2023-03-04T07:26:10;8.40;;;2.40;;
14080;SDS011;7116;52.152;5.392;2023-03-04T07:28:35;7.77;;;2.47;;
14080;SDS011;7116;52.152;5.392;2023-03-04T07:33:45;5.53;;;2.28;;
14080;SDS011;7116;52.152;5.392;2023-03-04T07:36:10;5.90;;;2.60;;
14080;SDS011;7116;52.152;5.392;2023-03-04T07:38:38;8.98;;;2.70;;
14080;SDS011;7116;52.152;5.392;2023-03-04T07:41:03;6.03;;;2.50;;
14080;SDS011;7116;52.152;5.392;2023-03-04T07:43:29;6.47;;;2.63;;
14080;SDS011;7116;52.152;5.392;2023-03-04T07:45:58;7.03;;;2.67;;
14080;SDS011;7116;52.152;5.392;2023-03-04T07:48:23;5.68;;;2.20;;
14080;SDS011;7116;52.152;5.392;2023-03-04T07:50:48;5.03;;;2.37;;
14080;SDS011;7116;52.152;5.392;2023-03-04T07:53:14;6.77;;;2.20;;
14080;SDS011;7116;52.152;5.392;2023-03-04T07:55:39;6.17;;;2.87;;
14080;SDS011;7116;52.152;5.392;2023-03-04T07:58:04;6.07;;;2.47;;
14080;SDS011;7116;52.152;5.392;2023-03-04T08:00:29;6.17;;;2.37;;
14080;SDS011;7116;52.152;5.392;2023-03-04T08:02:54;8.43;;;2.43;;
14080;SDS011;7116;52.152;5.392;2023-03-04T08:05:20;5.67;;;2.60;;
14080;SDS011;7116;52.152;5.392;2023-03-04T08:07:45;6.47;;;2.93;;
14080;SDS011;7116;52.152;5.392;2023-03-04T08:10:10;7.17;;;2.47;;
14080;SDS011;7116;52.152;5.392;2023-03-04T08:12:35;6.93;;;2.37;;
14080;SDS011;7116;52.152;5.392;2023-03-04T08:15:01;7.27;;;2.50;;
14080;SDS011;7116;52.152;5.392;2023-03-04T08:17:26;8.73;;;2.73;;
14080;SDS011;7116;52.152;5.392;2023-03-04T08:19:53;6.97;;;2.60;;
14080;SDS011;7116;52.152;5.392;2023-03-04T08:22:18;6.30;;;2.57;;
14080;SDS011;7116;52.152;5.392;2023-03-04T08:24:44;4.63;;;3.27;;
14080;SDS011;7116;52.152;5.392;2023-03-04T08:27:09;5.93;;;2.40;;
14080;SDS011;7116;52.152;5.392;2023-03-04T08:29:34;6.17;;;2.27;;
14080;SDS011;7116;52.152;5.392;2023-03-04T08:31:59;5.73;;;2.40;;
14080;SDS011;7116;52.152;5.392;2023-03-04T08:34:25;7.17;;;2.00;;
14080;SDS011;7116;52.152;5.392;2023-03-04T08:36:51;4.50;;;2.10;;
14080;SDS011;7116;52.152;5.392;2023-03-04T08:39:17;6.60;;;2.53;;
14080;SDS011;7116;52.152;5.392;2023-03-04T08:41:42;3.00;;;2.00;;
14080;SDS011;7116;52.152;5.392;2023-03-04T08:44:07;4.80;;;2.10;;
14080;SDS011;7116;52.152;5.392;2023-03-04T08:46:34;5.95;;;2.53;;
14080;SDS011;7116;52.152;5.392;2023-03-04T08:48:59;3.97;;;2.00;;
14080;SDS011;7116;52.152;5.392;2023-03-04T08:51:25;5.97;;;2.20;;
14080;SDS011;7116;52.152;5.392;2023-03-04T08:53:50;5.30;;;2.10;;
14080;SDS011;7116;52.152;5.392;2023-03-04T08:56:16;4.07;;;2.00;;
14080;SDS011;7116;52.152;5.392;2023-03-04T08:58:41;6.23;;;2.10;;
14080;SDS011;7116;52.152;5.392;2023-03-04T09:01:07;5.53;;;2.53;;
14080;SDS011;7116;52.152;5.392;2023-03-04T09:03:33;4.20;;;2.33;;
14080;SDS011;7116;52.152;5.392;2023-03-04T09:06:00;8.03;;;2.50;;
14080;SDS011;7116;52.152;5.392;2023-03-04T09:08:25;4.10;;;2.40;;
14080;SDS011;7116;52.152;5.392;2023-03-04T09:10:51;3.07;;;1.93;;
14080;SDS011;7116;52.152;5.392;2023-03-04T09:13:16;5.35;;;1.90;;
14080;SDS011;7116;52.152;5.392;2023-03-04T09:15:43;4.30;;;2.17;;
14080;SDS011;7116;52.152;5.392;2023-03-04T09:18:08;2.42;;;1.83;;
14080;SDS011;7116;52.152;5.392;2023-03-04T09:20:33;6.00;;;2.20;;
14080;SDS011;7116;52.152;5.392;2023-03-04T09:22:59;3.60;;;2.20;;
14080;SDS011;7116;52.152;5.392;2023-03-04T09:25:24;5.37;;;2.40;;
14080;SDS011;7116;52.152;5.392;2023-03-04T09:27:49;3.43;;;2.40;;
14080;SDS011;7116;52.152;5.392;2023-03-04T09:30:14;3.27;;;2.10;;
14080;SDS011;7116;52.152;5.392;2023-03-04T09:32:39;4.83;;;2.67;;
14080;SDS011;7116;52.152;5.392;2023-03-04T09:35:05;4.73;;;2.50;;
14080;SDS011;7116;52.152;5.392;2023-03-04T09:37:31;3.40;;;2.10;;
14080;SDS011;7116;52.152;5.392;2023-03-04T09:39:56;3.40;;;2.03;;
14080;SDS011;7116;52.152;5.392;2023-03-04T09:42:26;3.83;;;2.00;;
14080;SDS011;7116;52.152;5.392;2023-03-04T09:44:51;3.03;;;1.98;;
14080;SDS011;7116;52.152;5.392;2023-03-04T09:47:17;4.60;;;2.43;;
14080;SDS011;7116;52.152;5.392;2023-03-04T09:49:44;4.72;;;2.47;;
14080;SDS011;7116;52.152;5.392;2023-03-04T09:59:55;5.63;;;2.50;;
14080;SDS011;7116;52.152;5.392;2023-03-04T10:02:34;4.55;;;2.35;;
14080;SDS011;7116;52.152;5.392;2023-03-04T10:05:04;4.60;;;2.00;;
14080;SDS011;7116;52.152;5.392;2023-03-04T10:07:35;4.10;;;2.00;;
14080;SDS011;7116;52.152;5.392;2023-03-04T10:12:56;4.40;;;2.08;;
14080;SDS011;7116;52.152;5.392;2023-03-04T10:15:26;4.00;;;1.67;;
14080;SDS011;7116;52.152;5.392;2023-03-04T10:17:56;3.72;;;2.20;;
14080;SDS011;7116;52.152;5.392;2023-03-04T10:20:25;5.07;;;2.37;;
14080;SDS011;7116;52.152;5.392;2023-03-04T10:22:57;4.72;;;2.42;;
14080;SDS011;7116;52.152;5.392;2023-03-04T10:25:25;3.38;;;1.98;;
14080;SDS011;7116;52.152;5.392;2023-03-04T10:27:55;5.60;;;2.15;;
14080;SDS011;7116;52.152;5.392;2023-03-04T10:33:12;4.10;;;1.90;;
14080;SDS011;7116;52.152;5.392;2023-03-04T10:35:37;2.97;;;1.73;;
14080;SDS011;7116;52.152;5.392;2023-03-04T10:38:03;3.63;;;1.77;;
14080;SDS011;7116;52.152;5.392;2023-03-04T10:40:28;4.95;;;2.28;;
14080;SDS011;7116;52.152;5.392;2023-03-04T10:43:00;2.77;;;1.87;;
14080;SDS011;7116;52.152;5.392;2023-03-04T10:45:31;15.65;;;2.67;;
14080;SDS011;7116;52.152;5.392;2023-03-04T10:47:59;5.05;;;2.15;;
14080;SDS011;7116;52.152;5.392;2023-03-04T10:50:26;4.47;;;2.00;;
14080;SDS011;7116;52.152;5.392;2023-03-04T10:52:52;2.97;;;1.70;;
14080;SDS011;7116;52.152;5.392;2023-03-04T10:55:29;4.70;;;2.30;;
14080;SDS011;7116;52.152;5.392;2023-03-04T10:57:55;3.65;;;1.85;;
14080;SDS011;7116;52.152;5.392;2023-03-04T11:02:47;4.30;;;2.13;;
14080;SDS011;7116;52.152;5.392;2023-03-04T11:05:17;3.33;;;1.90;;
14080;SDS011;7116;52.152;5.392;2023-03-04T11:07:43;5.30;;;2.17;;
14080;SDS011;7116;52.152;5.392;2023-03-04T11:12:40;4.43;;;2.63;;
14080;SDS011;7116;52.152;5.392;2023-03-04T11:15:27;5.77;;;2.00;;
14080;SDS011;7116;52.152;5.392;2023-03-04T11:17:58;6.28;;;2.30;;
14080;SDS011;7116;52.152;5.392;2023-03-04T11:20:34;4.32;;;2.20;;
14080;SDS011;7116;52.152;5.392;2023-03-04T11:23:06;4.63;;;2.35;;
14080;SDS011;7116;52.152;5.392;2023-03-04T11:25:35;4.70;;;2.00;;
14080;SDS011;7116;52.152;5.392;2023-03-04T11:28:13;4.07;;;2.00;;
14080;SDS011;7116;52.152;5.392;2023-03-04T11:33:15;3.33;;;2.08;;
14080;SDS011;7116;52.152;5.392;2023-03-04T11:35:43;9.00;;;2.53;;
14080;SDS011;7116;52.152;5.392;2023-03-04T11:38:17;8.07;;;2.17;;
14080;SDS011;7116;52.152;5.392;2023-03-04T11:40:45;4.90;;;2.05;;
14080;SDS011;7116;52.152;5.392;2023-03-04T11:43:13;5.38;;;2.17;;
14080;SDS011;7116;52.152;5.392;2023-03-04T11:50:53;7.75;;;2.20;;
14080;SDS011;7116;52.152;5.392;2023-03-04T12:01:19;7.63;;;2.35;;
14080;SDS011;7116;52.152;5.392;2023-03-04T12:03:53;6.28;;;2.90;;
14080;SDS011;7116;52.152;5.392;2023-03-04T12:21:30;7.03;;;2.10;;
14080;SDS011;7116;52.152;5.392;2023-03-04T12:26:42;10.18;;;2.90;;
14080;SDS011;7116;52.152;5.392;2023-03-04T12:29:25;7.87;;;2.93;;
14080;SDS011;7116;52.152;5.392;2023-03-04T12:39:33;6.40;;;2.50;;
14080;SDS011;7116;52.152;5.392;2023-03-04T12:42:15;6.90;;;2.80;;
14080;SDS011;7116;52.152;5.392;2023-03-04T12:52:30;10.63;;;3.30;;
14080;SDS011;7116;52.152;5.392;2023-03-04T12:54:59;10.13;;;2.63;;
14080;SDS011;7116;52.152;5.392;2023-03-04T12:57:26;9.10;;;2.78;;
14080;SDS011;7116;52.152;5.392;2023-03-04T13:00:02;12.82;;;2.60;;
14080;SDS011;7116;52.152;5.392;2023-03-04T13:07:44;12.23;;;2.57;;
14080;SDS011;7116;52.152;5.392;2023-03-04T13:10:12;12.60;;;3.77;;
14080;SDS011;7116;52.152;5.392;2023-03-04T13:13:31;14.38;;;3.25;;
14080;SDS011;7116;52.152;5.392;2023-03-04T13:15:34;8.98;;;2.97;;
14080;SDS011;7116;52.152;5.392;2023-03-04T13:20:43;10.98;;;3.63;;
14080;SDS011;7116;52.152;5.392;2023-03-04T13:28:35;12.97;;;3.47;;
14080;SDS011;7116;52.152;5.392;2023-03-04T13:56:24;9.88;;;2.95;;
14080;SDS011;7116;52.152;5.392;2023-03-04T13:59:17;9.68;;;2.65;;
14080;SDS011;7116;52.152;5.392;2023-03-04T14:04:10;5.03;;;2.10;;
14080;SDS011;7116;52.152;5.392;2023-03-04T14:06:40;6.43;;;2.47;;
14080;SDS011;7116;52.152;5.392;2023-03-04T14:09:11;4.20;;;2.50;;
14080;SDS011;7116;52.152;5.392;2023-03-04T14:11:39;9.30;;;2.78;;
14080;SDS011;7116;52.152;5.392;2023-03-04T14:14:11;15.18;;;2.80;;
14080;SDS011;7116;52.152;5.392;2023-03-04T14:16:50;8.68;;;3.17;;
14080;SDS011;7116;52.152;5.392;2023-03-04T14:21:48;7.45;;;2.38;;
14080;SDS011;7116;52.152;5.392;2023-03-04T14:24:14;5.10;;;2.20;;
14080;SDS011;7116;52.152;5.392;2023-03-04T14:26:39;6.13;;;2.33;;
14080;SDS011;7116;52.152;5.392;2023-03-04T14:29:18;5.97;;;2.73;;
14080;SDS011;7116;52.152;5.392;2023-03-04T14:31:43;5.85;;;2.78;;
14080;SDS011;7116;52.152;5.392;2023-03-04T14:34:11;5.85;;;2.72;;
14080;SDS011;7116;52.152;5.392;2023-03-04T14:36:38;6.60;;;3.13;;
14080;SDS011;7116;52.152;5.392;2023-03-04T14:39:11;6.33;;;2.50;;
14080;SDS011;7116;52.152;5.392;2023-03-04T14:41:38;6.68;;;2.55;;
14080;SDS011;7116;52.152;5.392;2023-03-04T14:46:37;5.72;;;2.10;;
14080;SDS011;7116;52.152;5.392;2023-03-04T14:49:04;4.18;;;2.78;;
14080;SDS011;7116;52.152;5.392;2023-03-04T14:51:31;7.77;;;2.80;;
14080;SDS011;7116;52.152;5.392;2023-03-04T14:53:57;6.32;;;2.85;;
14080;SDS011;7116;52.152;5.392;2023-03-04T14:56:26;6.17;;;2.53;;
14080;SDS011;7116;52.152;5.392;2023-03-04T14:58:52;4.50;;;2.47;;
14080;SDS011;7116;52.152;5.392;2023-03-04T15:01:19;6.22;;;2.75;;
14080;SDS011;7116;52.152;5.392;2023-03-04T15:03:52;7.83;;;2.47;;
14080;SDS011;7116;52.152;5.392;2023-03-04T15:08:44;5.70;;;3.67;;
14080;SDS011;7116;52.152;5.392;2023-03-04T15:11:13;5.73;;;3.10;;
14080;SDS011;7116;52.152;5.392;2023-03-04T15:13:54;6.93;;;3.47;;
14080;SDS011;7116;52.152;5.392;2023-03-04T15:16:21;8.23;;;2.90;;
14080;SDS011;7116;52.152;5.392;2023-03-04T15:23:43;9.10;;;2.53;;
14080;SDS011;7116;52.152;5.392;2023-03-04T15:26:09;7.77;;;3.33;;
14080;SDS011;7116;52.152;5.392;2023-03-04T15:28:36;7.18;;;2.92;;
14080;SDS011;7116;52.152;5.392;2023-03-04T15:31:02;6.60;;;2.55;;
14080;SDS011;7116;52.152;5.392;2023-03-04T15:33:27;7.03;;;3.17;;
14080;SDS011;7116;52.152;5.392;2023-03-04T15:35:54;9.70;;;2.77;;
14080;SDS011;7116;52.152;5.392;2023-03-04T15:38:20;6.65;;;3.88;;
14080;SDS011;7116;52.152;5.392;2023-03-04T15:40:46;8.70;;;3.53;;
14080;SDS011;7116;52.152;5.392;2023-03-04T15:43:15;5.77;;;2.87;;
14080;SDS011;7116;52.152;5.392;2023-03-04T15:45:41;6.53;;;2.78;;
14080;SDS011;7116;52.152;5.392;2023-03-04T15:48:08;5.73;;;3.07;;
14080;SDS011;7116;52.152;5.392;2023-03-04T15:50:34;6.13;;;2.75;;
14080;SDS011;7116;52.152;5.392;2023-03-04T15:53:01;4.95;;;2.58;;
14080;SDS011;7116;52.152;5.392;2023-03-04T15:55:27;5.50;;;2.60;;
14080;SDS011;7116;52.152;5.392;2023-03-04T15:57:53;5.17;;;2.40;;
14080;SDS011;7116;52.152;5.392;2023-03-04T16:00:18;5.32;;;2.63;;
14080;SDS011;7116;52.152;5.392;2023-03-04T16:02:44;4.87;;;2.87;;
14080;SDS011;7116;52.152;5.392;2023-03-04T16:05:10;6.55;;;3.20;;
14080;SDS011;7116;52.152;5.392;2023-03-04T16:07:35;5.57;;;2.57;;
14080;SDS011;7116;52.152;5.392;2023-03-04T16:10:03;6.00;;;2.80;;
14080;SDS011;7116;52.152;5.392;2023-03-04T16:12:29;4.50;;;2.53;;
14080;SDS011;7116;52.152;5.392;2023-03-04T16:14:55;9.23;;;2.70;;
14080;SDS011;7116;52.152;5.392;2023-03-04T16:17:20;7.00;;;2.90;;
14080;SDS011;7116;52.152;5.392;2023-03-04T16:19:45;6.57;;;2.90;;
14080;SDS011;7116;52.152;5.392;2023-03-04T16:22:14;6.93;;;3.50;;
14080;SDS011;7116;52.152;5.392;2023-03-04T16:24:41;14.23;;;3.28;;
14080;SDS011;7116;52.152;5.392;2023-03-04T16:27:10;7.80;;;3.57;;
14080;SDS011;7116;52.152;5.392;2023-03-04T16:29:35;7.88;;;3.50;;
14080;SDS011;7116;52.152;5.392;2023-03-04T16:32:01;9.37;;;3.57;;
14080;SDS011;7116;52.152;5.392;2023-03-04T16:34:26;7.33;;;2.67;;
14080;SDS011;7116;52.152;5.392;2023-03-04T16:36:51;9.20;;;3.00;;
14080;SDS011;7116;52.152;5.392;2023-03-04T16:39:21;7.03;;;2.93;;
14080;SDS011;7116;52.152;5.392;2023-03-04T16:41:47;9.63;;;3.40;;
14080;SDS011;7116;52.152;5.392;2023-03-04T16:44:13;6.33;;;3.03;;
14080;SDS011;7116;52.152;5.392;2023-03-04T16:46:38;10.63;;;3.47;;
14080;SDS011;7116;52.152;5.392;2023-03-04T16:49:04;9.70;;;3.23;;
14080;SDS011;7116;52.152;5.392;2023-03-04T16:51:29;6.90;;;3.30;;
14080;SDS011;7116;52.152;5.392;2023-03-04T16:53:59;11.93;;;3.42;;
14080;SDS011;7116;52.152;5.392;2023-03-04T16:56:24;9.40;;;2.77;;
14080;SDS011;7116;52.152;5.392;2023-03-04T16:58:49;9.43;;;2.93;;